Time,TemperatureF,DewpointF,PressureIn,WindDirection,WindDirectionDegrees,WindSpeedMPH,WindSpeedGustMPH,Humidity,HourlyPrecipIn,Conditions,Clouds,dailyrainin,SolarRadiationWatts/m^2,SoftwareType,DateUTC
2013-03-31 00:04:00,58.3,51.8,29.97,NNW,347,6.0,11.0,79,0.00,,,0.00,0,Wunderground v.1.15,2013-03-31 05:04:00,
2013-03-31 00:10:00,58.6,51.8,29.96,NNW,347,6.0,11.0,78,0.00,,,0.00,0,Wunderground v.1.15,2013-03-31 05:10:00,
2013-03-31 00:16:00,58.3,51.5,29.96,NNW,347,6.0,6.0,78,0.00,,,0.00,0,Wunderground v.1.15,2013-03-31 05:16:00,
2013-03-31 00:22:00,57.5,51.0,29.96,NNW,347,5.0,11.0,79,0.00,,,0.00,0,Wunderground v.1.15,2013-03-31 05:22:00,
2013-03-31 00:28:00,56.9,50.8,29.96,NNW,347,5.0,11.0,80,0.00,,,0.00,0,Wunderground v.1.15,2013-03-31 05:28:00,
2013-03-31 00:34:00,56.6,50.8,29.96,NNW,347,5.0,11.0,81,0.00,,,0.00,0,Wunderground v.1.15,2013-03-31 05:34:00,
2013-03-31 00:40:00,56.6,51.2,29.96,NNW,347,5.0,11.0,82,0.00,,,0.00,0,Wunderground v.1.15,2013-03-31 05:40:00,
2013-03-31 00:46:00,56.7,51.3,29.97,NNW,347,5.0,5.0,82,0.00,,,0.00,0,Wunderground v.1.15,2013-03-31 05:46:00,
2013-03-31 00:52:00,56.7,50.9,29.96,North,352,6.0,8.0,81,0.00,,,0.00,0,Wunderground v.1.15,2013-03-31 05:52:00,
2013-03-31 00:58:00,56.6,51.2,29.96,North,2,8.0,11.0,82,0.00,,,0.00,0,Wunderground v.1.15,2013-03-31 05:58:00,
2013-03-31 01:04:00,56.7,51.3,29.95,NNE,12,11.0,12.0,82,0.00,,,0.00,0,Wunderground v.1.15,2013-03-31 06:04:00,
2013-03-31 01:10:00,57.0,51.6,29.93,NNE,22,12.0,13.0,82,0.00,,,0.00,0,Wunderground v.1.15,2013-03-31 06:10:00,
2013-03-31 01:16:00,57.5,51.7,29.94,NNE,12,12.0,12.0,81,0.00,,,0.00,0,Wunderground v.1.15,2013-03-31 06:16:00,
2013-03-31 01:22:00,57.8,51.7,29.95,North,357,12.0,17.0,80,0.00,,,0.00,0,Wunderground v.1.15,2013-03-31 06:22:00,
2013-03-31 01:28:00,58.0,51.5,29.97,NNW,345,14.0,15.0,79,0.00,,,0.00,0,Wunderground v.1.15,2013-03-31 06:28:00,
2013-03-31 01:34:00,58.1,51.3,29.98,NW,325,14.0,15.0,78,0.00,,,0.00,0,Wunderground v.1.15,2013-03-31 06:34:00,
2013-03-31 01:40:00,58.3,50.8,30.00,NW,314,15.0,17.0,76,0.00,,,0.00,0,Wunderground v.1.15,2013-03-31 06:40:00,
2013-03-31 01:46:00,58.2,49.6,30.01,NNW,330,16.0,22.0,73,0.00,,,0.00,0,Wunderground v.1.15,2013-03-31 06:46:00,
2013-03-31 01:52:00,57.9,48.2,30.02,NNW,336,17.0,27.0,70,0.00,,,0.00,0,Wunderground v.1.15,2013-03-31 06:52:00,
2013-03-31 01:58:00,57.8,47.3,30.03,NNW,337,20.0,25.0,68,0.00,,,0.00,0,Wunderground v.1.15,2013-03-31 06:58:00,
2013-03-31 02:04:00,57.2,45.9,30.03,NNW,339,23.0,29.0,66,0.00,,,0.00,0,Wunderground v.1.15,2013-03-31 07:04:00,
2013-03-31 02:10:00,56.5,45.3,30.03,NNW,337,27.0,42.0,66,0.00,,,0.00,0,Wunderground v.1.15,2013-03-31 07:10:00,
2013-03-31 02:16:00,55.7,45.7,30.03,NNW,343,28.0,28.0,69,0.00,,,0.00,0,Wunderground v.1.15,2013-03-31 07:16:00,
2013-03-31 02:22:00,55.1,45.9,30.04,North,2,26.0,28.0,71,0.00,,,0.00,0,Wunderground v.1.15,2013-03-31 07:22:00,
2013-03-31 02:28:00,54.4,45.9,30.04,NNW,341,24.0,28.0,73,0.00,,,0.00,0,Wunderground v.1.15,2013-03-31 07:28:00,
2013-03-31 02:34:00,53.9,46.2,30.05,NNW,345,23.0,28.0,75,0.00,,,0.01,0,Wunderground v.1.15,2013-03-31 07:34:00,
2013-03-31 02:40:00,53.4,46.4,30.05,North,357,20.0,22.0,77,0.00,,,0.01,0,Wunderground v.1.15,2013-03-31 07:40:00,
2013-03-31 02:46:00,53.1,46.4,30.06,NW,322,17.0,17.0,78,0.07,,,0.02,0,Wunderground v.1.15,2013-03-31 07:46:00,
2013-03-31 02:52:00,52.8,46.5,30.05,North,352,11.0,17.0,79,0.09,,,0.03,0,Wunderground v.1.15,2013-03-31 07:52:00,
2013-03-31 02:58:00,52.6,46.6,30.04,North,10,9.0,12.0,80,0.06,,,0.03,0,Wunderground v.1.15,2013-03-31 07:58:00,
2013-03-31 03:04:00,52.4,46.7,30.01,NNE,25,8.0,12.0,81,0.05,,,0.04,0,Wunderground v.1.15,2013-03-31 08:04:00,
2013-03-31 03:10:00,52.1,46.4,30.01,NE,36,6.0,12.0,81,0.05,,,0.04,0,Wunderground v.1.15,2013-03-31 08:10:00,
2013-03-31 03:16:00,52.1,46.8,30.04,NNW,341,8.0,12.0,82,0.04,,,0.04,0,Wunderground v.1.15,2013-03-31 08:16:00,
2013-03-31 03:22:00,52.0,46.7,30.05,NNW,339,11.0,15.0,82,0.00,,,0.04,0,Wunderground v.1.15,2013-03-31 08:22:00,
2013-03-31 03:28:00,52.0,46.7,30.06,NW,322,12.0,15.0,82,0.00,,,0.04,0,Wunderground v.1.15,2013-03-31 08:28:00,
2013-03-31 03:34:00,52.2,46.9,30.05,NNW,339,11.0,15.0,82,0.00,,,0.04,0,Wunderground v.1.15,2013-03-31 08:34:00,
2013-03-31 03:40:00,52.3,47.0,30.05,NNW,335,9.0,12.0,82,0.00,,,0.04,0,Wunderground v.1.15,2013-03-31 08:40:00,
2013-03-31 03:46:00,52.2,46.9,30.05,NNW,345,7.0,12.0,82,0.00,,,0.04,0,Wunderground v.1.15,2013-03-31 08:46:00,
2013-03-31 03:52:00,52.1,46.8,30.04,North,357,7.0,12.0,82,0.00,,,0.04,0,Wunderground v.1.15,2013-03-31 08:52:00,
2013-03-31 03:58:00,51.8,46.5,30.04,North,2,7.0,12.0,82,0.00,,,0.04,0,Wunderground v.1.15,2013-03-31 08:58:00,
2013-03-31 04:04:00,51.5,46.5,30.03,North,2,7.0,12.0,83,0.00,,,0.04,0,Wunderground v.1.15,2013-03-31 09:04:00,
2013-03-31 04:10:00,51.2,46.2,30.02,North,6,7.0,12.0,83,0.00,,,0.04,0,Wunderground v.1.15,2013-03-31 09:10:00,
2013-03-31 04:18:00,50.9,45.9,30.02,NNE,19,6.0,12.0,83,0.00,,,0.04,0,Wunderground v.1.15,2013-03-31 09:18:00,
2013-03-31 04:24:00,50.7,46.0,30.02,NNE,19,6.0,12.0,84,0.00,,,0.04,0,Wunderground v.1.15,2013-03-31 09:24:00,
2013-03-31 04:30:00,50.3,45.3,30.01,NNE,19,5.0,12.0,83,0.00,,,0.04,0,Wunderground v.1.15,2013-03-31 09:30:00,
2013-03-31 04:36:00,50.1,45.5,30.01,NNE,18,6.0,12.0,84,0.00,,,0.04,0,Wunderground v.1.15,2013-03-31 09:36:00,
2013-03-31 04:42:00,49.9,45.3,30.02,NNE,16,7.0,12.0,84,0.00,,,0.04,0,Wunderground v.1.15,2013-03-31 09:42:00,
2013-03-31 04:48:00,49.5,44.9,30.02,NNE,16,6.0,12.0,84,0.00,,,0.04,0,Wunderground v.1.15,2013-03-31 09:48:00,
2013-03-31 04:54:00,49.6,45.0,30.02,NNE,16,4.0,12.0,84,0.00,,,0.04,0,Wunderground v.1.15,2013-03-31 09:54:00,
2013-03-31 05:00:00,49.4,44.8,30.02,NNE,16,2.0,12.0,84,0.00,,,0.04,0,Wunderground v.1.15,2013-03-31 10:00:00,
2013-03-31 05:06:00,48.9,44.3,30.02,NNE,16,0.0,12.0,84,0.00,,,0.04,0,Wunderground v.1.15,2013-03-31 10:06:00,
2013-03-31 05:12:00,49.0,44.7,30.02,NNE,16,2.0,12.0,85,0.00,,,0.04,0,Wunderground v.1.15,2013-03-31 10:12:00,
2013-03-31 05:18:00,49.6,45.3,30.02,North,8,4.0,12.0,85,0.00,,,0.04,0,Wunderground v.1.15,2013-03-31 10:18:00,
2013-03-31 05:24:00,49.5,44.9,30.02,North,2,5.0,12.0,84,0.00,,,0.04,0,Wunderground v.1.15,2013-03-31 10:24:00,
2013-03-31 05:30:00,49.3,45.9,30.02,North,2,5.0,12.0,88,0.00,,,0.04,0,Wunderground v.1.15,2013-03-31 10:30:00,
2013-03-31 05:38:00,48.7,44.1,30.01,North,2,5.0,12.0,84,0.00,,,0.04,0,Wunderground v.1.15,2013-03-31 10:38:00,
2013-03-31 05:44:00,48.5,44.2,30.02,North,2,5.0,12.0,85,0.00,,,0.04,0,Wunderground v.1.15,2013-03-31 10:44:00,
2013-03-31 05:50:00,48.5,44.2,30.02,North,357,5.0,12.0,85,0.00,,,0.04,0,Wunderground v.1.15,2013-03-31 10:50:00,
2013-03-31 05:56:00,48.3,44.3,30.01,North,357,5.0,12.0,86,0.00,,,0.04,0,Wunderground v.1.15,2013-03-31 10:56:00,
2013-03-31 06:02:00,48.4,44.4,30.01,North,352,5.0,12.0,86,0.00,,,0.04,0,Wunderground v.1.15,2013-03-31 11:02:00,
2013-03-31 06:08:00,48.7,44.7,30.02,North,352,5.0,12.0,86,0.00,,,0.04,0,Wunderground v.1.15,2013-03-31 11:08:00,
2013-03-31 06:14:00,49.0,45.0,30.02,NNW,329,5.0,12.0,86,0.00,,,0.04,0,Wunderground v.1.15,2013-03-31 11:14:00,
2013-03-31 06:20:00,49.3,45.3,30.03,NNW,327,5.0,12.0,86,0.00,,,0.04,0,Wunderground v.1.15,2013-03-31 11:20:00,
2013-03-31 06:26:00,49.3,45.3,30.03,NW,324,5.0,12.0,86,0.00,,,0.04,0,Wunderground v.1.15,2013-03-31 11:26:00,
2013-03-31 06:32:00,49.3,45.3,30.04,NW,322,5.0,12.0,86,0.00,,,0.04,0,Wunderground v.1.15,2013-03-31 11:32:00,
2013-03-31 06:38:00,49.3,45.3,30.04,NW,320,5.0,12.0,86,0.00,,,0.04,0,Wunderground v.1.15,2013-03-31 11:38:00,
2013-03-31 06:44:00,49.2,44.9,30.04,NW,318,5.0,12.0,85,0.00,,,0.04,0,Wunderground v.1.15,2013-03-31 11:44:00,
2013-03-31 06:50:00,48.8,44.5,30.04,NW,312,5.0,12.0,85,0.00,,,0.04,0,Wunderground v.1.15,2013-03-31 11:50:00,
2013-03-31 06:56:00,48.5,44.2,30.04,NW,304,5.0,5.0,85,0.00,,,0.04,0,Wunderground v.1.15,2013-03-31 11:56:00,
2013-03-31 07:02:00,48.0,43.7,30.04,WNW,303,5.0,12.0,85,0.00,,,0.04,0,Wunderground v.1.15,2013-03-31 12:02:00,
2013-03-31 07:08:00,47.7,43.7,30.04,WNW,303,5.0,12.0,86,0.00,,,0.04,0,Wunderground v.1.15,2013-03-31 12:08:00,
2013-03-31 07:14:00,47.6,43.6,30.04,WNW,301,6.0,12.0,86,0.00,,,0.04,0,Wunderground v.1.15,2013-03-31 12:14:00,
2013-03-31 07:20:00,47.7,44.0,30.04,NW,316,6.0,12.0,87,0.00,,,0.04,7,Wunderground v.1.15,2013-03-31 12:20:00,
2013-03-31 07:26:00,48.0,44.3,30.04,NW,321,6.0,12.0,87,0.00,,,0.04,11,Wunderground v.1.15,2013-03-31 12:26:00,
2013-03-31 07:32:00,48.1,44.1,30.04,NW,323,7.0,12.0,86,0.00,,,0.04,12,Wunderground v.1.15,2013-03-31 12:32:00,
2013-03-31 07:38:00,48.0,44.0,30.04,NW,320,6.0,12.0,86,0.00,,,0.04,16,Wunderground v.1.15,2013-03-31 12:38:00,
2013-03-31 07:44:00,48.1,44.1,30.04,NW,314,5.0,12.0,86,0.00,,,0.04,26,Wunderground v.1.15,2013-03-31 12:44:00,
2013-03-31 07:50:00,48.4,44.4,30.04,NW,318,6.0,12.0,86,0.00,,,0.04,39,Wunderground v.1.15,2013-03-31 12:50:00,
2013-03-31 07:56:00,48.4,44.1,30.04,NW,325,7.0,7.0,85,0.00,,,0.04,56,Wunderground v.1.15,2013-03-31 12:56:00,
2013-03-31 08:02:00,48.5,44.2,30.04,NW,325,7.0,12.0,85,0.00,,,0.04,74,Wunderground v.1.15,2013-03-31 13:02:00,
2013-03-31 08:08:00,48.5,44.2,30.04,NNW,330,7.0,12.0,85,0.00,,,0.04,93,Wunderground v.1.15,2013-03-31 13:08:00,
2013-03-31 08:14:00,48.7,44.4,30.04,NNW,335,6.0,12.0,85,0.00,,,0.04,114,Wunderground v.1.15,2013-03-31 13:14:00,
2013-03-31 08:20:00,48.9,44.6,30.05,NNW,335,6.0,12.0,85,0.00,,,0.04,135,Wunderground v.1.15,2013-03-31 13:20:00,
2013-03-31 08:26:00,49.2,44.9,30.05,NNW,335,6.0,6.0,85,0.00,,,0.04,158,Wunderground v.1.15,2013-03-31 13:26:00,
2013-03-31 08:32:00,49.7,45.4,30.05,NNW,333,6.0,12.0,85,0.00,,,0.04,176,Wunderground v.1.15,2013-03-31 13:32:00,
2013-03-31 08:38:00,50.4,45.7,30.05,NNW,337,6.0,12.0,84,0.00,,,0.04,193,Wunderground v.1.15,2013-03-31 13:38:00,
2013-03-31 08:44:00,50.9,45.6,30.04,NW,326,8.0,12.0,82,0.00,,,0.04,211,Wunderground v.1.15,2013-03-31 13:44:00,
2013-03-31 08:50:00,51.4,45.8,30.04,NNW,337,9.0,12.0,81,0.00,,,0.04,225,Wunderground v.1.15,2013-03-31 13:50:00,
2013-03-31 08:58:00,52.0,46.0,30.04,NNW,340,8.0,12.0,80,0.00,,,0.04,251,Wunderground v.1.15,2013-03-31 13:58:00,
2013-03-31 09:04:00,52.2,45.5,30.04,NNW,342,9.0,12.0,78,0.00,,,0.04,267,Wunderground v.1.15,2013-03-31 14:04:00,
2013-03-31 09:10:00,52.4,45.7,30.04,NNW,341,11.0,12.0,78,0.00,,,0.04,287,Wunderground v.1.15,2013-03-31 14:10:00,
2013-03-31 09:16:00,52.9,45.9,30.05,NNW,337,10.0,15.0,77,0.00,,,0.04,308,Wunderground v.1.15,2013-03-31 14:16:00,
2013-03-31 09:22:00,53.1,45.4,30.04,North,6,12.0,15.0,75,0.00,,,0.04,330,Wunderground v.1.15,2013-03-31 14:22:00,
2013-03-31 09:28:00,53.4,45.7,30.05,NNW,335,13.0,13.0,75,0.00,,,0.04,352,Wunderground v.1.15,2013-03-31 14:28:00,
2013-03-31 09:34:00,53.4,45.3,30.05,NW,326,12.0,13.0,74,0.00,,,0.04,371,Wunderground v.1.15,2013-03-31 14:34:00,
2013-03-31 09:40:00,53.4,45.0,30.06,NW,315,11.0,13.0,73,0.00,,,0.04,390,Wunderground v.1.15,2013-03-31 14:40:00,
2013-03-31 09:48:00,54.0,45.5,30.05,NNW,336,11.0,12.0,73,0.00,,,0.04,422,Wunderground v.1.15,2013-03-31 14:48:00,
2013-03-31 09:54:00,54.3,45.8,30.06,NNW,347,11.0,15.0,73,0.00,,,0.04,450,Wunderground v.1.15,2013-03-31 14:54:00,
2013-03-31 10:00:00,54.8,45.6,30.05,NNW,339,11.0,14.0,71,0.00,,,0.04,482,Wunderground v.1.15,2013-03-31 15:00:00,
2013-03-31 10:06:00,55.1,45.9,30.05,NNW,337,10.0,12.0,71,0.00,,,0.04,503,Wunderground v.1.15,2013-03-31 15:06:00,
2013-03-31 10:12:00,55.3,45.7,30.05,NNW,339,10.0,12.0,70,0.00,,,0.04,522,Wunderground v.1.15,2013-03-31 15:12:00,
2013-03-31 10:18:00,56.2,46.5,30.05,NNW,335,11.0,13.0,70,0.00,,,0.04,543,Wunderground v.1.15,2013-03-31 15:18:00,
2013-03-31 10:24:00,56.3,45.5,30.05,NNW,345,11.0,13.0,67,0.00,,,0.04,563,Wunderground v.1.15,2013-03-31 15:24:00,
2013-03-31 10:30:00,56.8,46.3,30.05,North,352,12.0,15.0,68,0.00,,,0.04,580,Wunderground v.1.15,2013-03-31 15:30:00,
2013-03-31 10:36:00,57.4,46.9,30.05,NNW,335,12.0,12.0,68,0.00,,,0.04,598,Wunderground v.1.15,2013-03-31 15:36:00,
2013-03-31 10:42:00,57.6,46.3,30.05,NNW,328,11.0,14.0,66,0.00,,,0.04,613,Wunderground v.1.15,2013-03-31 15:42:00,
2013-03-31 10:48:00,57.7,46.4,30.05,NW,322,12.0,12.0,66,0.00,,,0.04,629,Wunderground v.1.15,2013-03-31 15:48:00,
2013-03-31 10:54:00,57.9,46.2,30.05,NNW,331,12.0,12.0,65,0.00,,,0.04,647,Wunderground v.1.15,2013-03-31 15:54:00,
2013-03-31 11:00:00,58.0,45.9,30.05,NNW,340,11.0,12.0,64,0.00,,,0.04,663,Wunderground v.1.15,2013-03-31 16:00:00,
2013-03-31 11:06:00,57.7,46.0,30.05,NW,312,10.0,10.0,65,0.00,,,0.04,677,Wunderground v.1.15,2013-03-31 16:06:00,
2013-03-31 11:12:00,57.9,46.2,30.04,NNW,335,8.0,12.0,65,0.00,,,0.04,693,Wunderground v.1.15,2013-03-31 16:12:00,
2013-03-31 11:18:00,58.7,46.5,30.04,NNW,345,8.0,9.0,64,0.00,,,0.04,707,Wunderground v.1.15,2013-03-31 16:18:00,
2013-03-31 11:24:00,58.7,45.3,30.04,NW,312,7.0,12.0,61,0.00,,,0.04,722,Wunderground v.1.15,2013-03-31 16:24:00,
2013-03-31 11:30:00,59.3,47.5,30.05,WNW,300,7.0,12.0,65,0.00,,,0.04,731,Wunderground v.1.15,2013-03-31 16:30:00,
2013-03-31 11:36:00,60.0,47.4,30.04,WNW,297,7.0,12.0,63,0.00,,,0.04,745,Wunderground v.1.15,2013-03-31 16:36:00,
2013-03-31 11:42:00,60.2,46.3,30.04,NNW,330,7.0,12.0,60,0.00,,,0.04,758,Wunderground v.1.15,2013-03-31 16:42:00,
2013-03-31 11:48:00,60.2,48.0,30.04,NNW,348,7.0,12.0,64,0.00,,,0.04,770,Wunderground v.1.15,2013-03-31 16:48:00,
2013-03-31 11:54:00,60.9,46.9,30.05,WNW,295,7.0,12.0,60,0.00,,,0.04,779,Wunderground v.1.15,2013-03-31 16:54:00,
2013-03-31 12:04:00,62.6,48.1,30.04,NW,319,3.0,3.0,59,0.00,,,0.04,,Wunderground v.1.15,2013-03-31 17:04:00,
2013-03-31 12:10:00,60.9,47.4,30.04,WNW,294,8.0,10.0,61,0.00,,,0.04,810,Wunderground v.1.15,2013-03-31 17:10:00,
2013-03-31 12:16:00,61.3,47.3,30.04,NW,310,8.0,8.0,60,0.00,,,0.04,817,Wunderground v.1.15,2013-03-31 17:16:00,
2013-03-31 12:22:00,61.4,46.9,30.04,NNW,330,8.0,9.0,59,0.00,,,0.04,828,Wunderground v.1.15,2013-03-31 17:22:00,
2013-03-31 12:28:00,62.2,48.1,30.04,WNW,282,7.0,12.0,60,0.00,,,0.04,833,Wunderground v.1.15,2013-03-31 17:28:00,
2013-03-31 12:34:00,62.9,48.8,30.04,WNW,283,9.0,12.0,60,0.00,,,0.04,842,Wunderground v.1.15,2013-03-31 17:34:00,
2013-03-31 12:40:00,62.9,48.3,30.04,WNW,302,8.0,10.0,59,0.00,,,0.04,847,Wunderground v.1.15,2013-03-31 17:40:00,
2013-03-31 12:46:00,62.9,47.0,30.04,NW,318,7.0,9.0,56,0.00,,,0.04,858,Wunderground v.1.15,2013-03-31 17:46:00,
2013-03-31 12:52:00,62.9,46.0,30.04,NNW,342,8.0,12.0,54,0.00,,,0.04,865,Wunderground v.1.15,2013-03-31 17:52:00,
2013-03-31 12:58:00,63.3,45.9,30.04,West,281,8.0,12.0,53,0.00,,,0.04,874,Wunderground v.1.15,2013-03-31 17:58:00,
2013-03-31 13:04:00,64.1,48.5,30.04,WNW,303,8.0,12.0,57,0.00,,,0.04,919,Wunderground v.1.15,2013-03-31 18:04:00,
2013-03-31 13:10:00,64.1,45.6,30.04,NW,326,8.0,12.0,51,0.00,,,0.04,889,Wunderground v.1.15,2013-03-31 18:10:00,
2013-03-31 13:18:00,64.4,47.9,30.04,WNW,286,9.0,12.0,55,0.00,,,0.04,935,Wunderground v.1.15,2013-03-31 18:18:00,
2013-03-31 13:24:00,64.3,45.3,30.04,NNW,337,9.0,13.0,50,0.00,,,0.04,907,Wunderground v.1.15,2013-03-31 18:24:00,
2013-03-31 13:30:00,64.2,45.2,30.03,NW,318,8.0,12.0,50,0.00,,,0.04,939,Wunderground v.1.15,2013-03-31 18:30:00,
2013-03-31 13:38:00,63.6,43.0,30.03,NNW,339,9.0,12.0,47,0.00,,,0.04,947,Wunderground v.1.15,2013-03-31 18:38:00,
2013-03-31 13:44:00,64.0,45.0,30.03,WNW,295,8.0,12.0,50,0.00,,,0.04,937,Wunderground v.1.15,2013-03-31 18:44:00,
2013-03-31 13:50:00,64.2,44.6,30.03,West,279,8.0,12.0,49,0.00,,,0.04,969,Wunderground v.1.15,2013-03-31 18:50:00,
2013-03-31 13:56:00,64.4,44.8,30.03,NW,318,8.0,12.0,49,0.00,,,0.04,944,Wunderground v.1.15,2013-03-31 18:56:00,
2013-03-31 14:02:00,64.4,44.8,30.03,NW,308,9.0,12.0,49,0.00,,,0.04,939,Wunderground v.1.15,2013-03-31 19:02:00,
2013-03-31 14:08:00,64.9,44.7,30.03,NW,318,8.0,12.0,48,0.00,,,0.04,926,Wunderground v.1.15,2013-03-31 19:08:00,
2013-03-31 14:14:00,65.9,46.7,30.02,WNW,283,8.0,13.0,50,0.00,,,0.04,993,Wunderground v.1.15,2013-03-31 19:14:00,
2013-03-31 14:20:00,66.1,43.5,30.02,NW,307,9.0,12.0,44,0.00,,,0.04,921,Wunderground v.1.15,2013-03-31 19:20:00,
2013-03-31 14:26:00,65.8,43.9,30.02,NNW,335,9.0,12.0,45,0.00,,,0.04,926,Wunderground v.1.15,2013-03-31 19:26:00,
2013-03-31 14:32:00,65.3,42.2,30.02,North,352,9.0,12.0,43,0.00,,,0.04,872,Wunderground v.1.15,2013-03-31 19:32:00,
2013-03-31 14:38:00,65.4,41.1,30.02,North,352,8.0,16.0,41,0.00,,,0.04,840,Wunderground v.1.15,2013-03-31 19:38:00,
2013-03-31 14:44:00,66.0,39.0,30.02,NW,307,10.0,16.0,37,0.00,,,0.04,856,Wunderground v.1.15,2013-03-31 19:44:00,
2013-03-31 14:50:00,65.7,38.7,30.02,NW,314,11.0,15.0,37,0.00,,,0.04,844,Wunderground v.1.15,2013-03-31 19:50:00,
2013-03-31 14:56:00,66.0,39.7,30.01,NW,324,10.0,15.0,38,0.00,,,0.04,837,Wunderground v.1.15,2013-03-31 19:56:00,
2013-03-31 15:02:00,65.6,39.3,30.01,NNW,337,11.0,15.0,38,0.00,,,0.04,826,Wunderground v.1.15,2013-03-31 20:02:00,
2013-03-31 15:08:00,66.1,41.1,30.01,NNW,333,9.0,12.0,40,0.00,,,0.04,819,Wunderground v.1.15,2013-03-31 20:08:00,
2013-03-31 15:14:00,66.5,39.4,30.01,NW,314,10.0,15.0,37,0.00,,,0.04,810,Wunderground v.1.15,2013-03-31 20:14:00,
2013-03-31 15:20:00,66.4,42.0,30.01,NNW,332,9.0,12.0,41,0.00,,,0.04,796,Wunderground v.1.15,2013-03-31 20:20:00,
2013-03-31 15:26:00,66.8,39.7,30.01,NNW,341,7.0,14.0,37,0.00,,,0.04,789,Wunderground v.1.15,2013-03-31 20:26:00,
2013-03-31 15:32:00,66.9,41.8,30.00,North,357,11.0,14.0,40,0.00,,,0.04,779,Wunderground v.1.15,2013-03-31 20:32:00,
2013-03-31 15:38:00,66.4,37.9,30.00,NNW,333,12.0,14.0,35,0.00,,,0.04,765,Wunderground v.1.15,2013-03-31 20:38:00,
2013-03-31 15:44:00,66.0,39.7,30.00,NNW,328,10.0,14.0,38,0.00,,,0.04,756,Wunderground v.1.15,2013-03-31 20:44:00,
2013-03-31 15:50:00,66.3,36.3,30.00,NNW,343,10.0,15.0,33,0.00,,,0.04,742,Wunderground v.1.15,2013-03-31 20:50:00,
2013-03-31 15:58:00,67.2,40.0,30.00,NNW,345,10.0,12.0,37,0.00,,,0.04,724,Wunderground v.1.15,2013-03-31 20:58:00,
2013-03-31 16:04:00,67.1,41.3,29.99,North,10,12.0,19.0,39,0.00,,,0.04,708,Wunderground v.1.15,2013-03-31 21:04:00,
2013-03-31 16:10:00,67.1,40.6,29.99,NNW,341,12.0,15.0,38,0.00,,,0.04,696,Wunderground v.1.15,2013-03-31 21:10:00,
2013-03-31 16:16:00,67.1,39.9,29.99,NNW,332,11.0,12.0,37,0.00,,,0.04,684,Wunderground v.1.15,2013-03-31 21:16:00,
2013-03-31 16:22:00,67.2,42.0,29.99,NNW,341,9.0,12.0,40,0.00,,,0.04,664,Wunderground v.1.15,2013-03-31 21:22:00,
2013-03-31 16:30:00,66.9,39.8,29.98,NNW,330,6.0,12.0,37,0.00,,,0.04,647,Wunderground v.1.15,2013-03-31 21:30:00,
2013-03-31 16:36:00,66.9,38.3,29.98,North,7,7.0,7.0,35,0.00,,,0.04,628,Wunderground v.1.15,2013-03-31 21:36:00,
2013-03-31 16:42:00,67.4,38.8,29.98,NW,326,8.0,12.0,35,0.00,,,0.04,612,Wunderground v.1.15,2013-03-31 21:42:00,
2013-03-31 16:48:00,67.0,36.9,29.98,NNW,332,9.0,12.0,33,0.00,,,0.04,596,Wunderground v.1.15,2013-03-31 21:48:00,
2013-03-31 16:54:00,67.0,40.5,29.98,NNW,345,9.0,12.0,38,0.00,,,0.04,578,Wunderground v.1.15,2013-03-31 21:54:00,
2013-03-31 17:00:00,67.0,37.7,29.98,North,2,10.0,12.0,34,0.00,,,0.04,557,Wunderground v.1.15,2013-03-31 22:00:00,
2013-03-31 17:06:00,66.7,38.2,29.97,North,8,9.0,9.0,35,0.00,,,0.04,540,Wunderground v.1.15,2013-03-31 22:06:00,
2013-03-31 17:12:00,66.7,39.6,29.97,NNW,328,8.0,12.0,37,0.00,,,0.04,522,Wunderground v.1.15,2013-03-31 22:12:00,
2013-03-31 17:18:00,67.0,38.4,29.97,North,2,8.0,15.0,35,0.00,,,0.04,504,Wunderground v.1.15,2013-03-31 22:18:00,
2013-03-31 17:24:00,66.7,36.7,29.97,North,352,10.0,15.0,33,0.00,,,0.04,485,Wunderground v.1.15,2013-03-31 22:24:00,
2013-03-31 17:30:00,66.7,39.6,29.97,North,2,9.0,12.0,37,0.00,,,0.04,466,Wunderground v.1.15,2013-03-31 22:30:00,
2013-03-31 17:36:00,66.8,38.3,29.97,NNW,331,8.0,8.0,35,0.00,,,0.04,448,Wunderground v.1.15,2013-03-31 22:36:00,
2013-03-31 17:42:00,66.7,35.9,29.97,NNW,328,8.0,12.0,32,0.00,,,0.04,424,Wunderground v.1.15,2013-03-31 22:42:00,
2013-03-31 17:48:00,66.3,36.3,29.97,NNW,334,7.0,12.0,33,0.00,,,0.04,404,Wunderground v.1.15,2013-03-31 22:48:00,
2013-03-31 17:54:00,66.3,38.5,29.96,North,8,6.0,12.0,36,0.00,,,0.04,383,Wunderground v.1.15,2013-03-31 22:54:00,
2013-03-31 18:00:00,66.2,38.4,29.96,North,357,8.0,12.0,36,0.00,,,0.04,362,Wunderground v.1.15,2013-03-31 23:00:00,
2013-03-31 18:06:00,66.1,36.9,29.96,North,352,7.0,7.0,34,0.00,,,0.04,343,Wunderground v.1.15,2013-03-31 23:06:00,
2013-03-31 18:12:00,66.2,36.2,29.96,NW,305,5.0,12.0,33,0.00,,,0.04,322,Wunderground v.1.15,2013-03-31 23:12:00,
2013-03-31 18:18:00,65.9,35.2,29.95,NW,324,6.0,12.0,32,0.00,,,0.04,302,Wunderground v.1.15,2013-03-31 23:18:00,
2013-03-31 18:24:00,65.8,38.8,29.95,NNW,334,5.0,12.0,37,0.00,,,0.04,279,Wunderground v.1.15,2013-03-31 23:24:00,
2013-03-31 18:30:00,65.8,37.4,29.95,NNW,336,5.0,12.0,35,0.00,,,0.04,258,Wunderground v.1.15,2013-03-31 23:30:00,
2013-03-31 18:36:00,65.7,35.8,29.96,NNW,336,3.0,12.0,33,0.00,,,0.04,234,Wunderground v.1.15,2013-03-31 23:36:00,
2013-03-31 18:42:00,65.5,38.5,29.96,NNW,328,4.0,12.0,37,0.00,,,0.04,204,Wunderground v.1.15,2013-03-31 23:42:00,
2013-03-31 18:48:00,65.3,36.2,29.96,NNW,328,2.0,12.0,34,0.00,,,0.04,178,Wunderground v.1.15,2013-03-31 23:48:00,
2013-03-31 18:54:00,65.2,38.9,29.96,NNW,328,2.0,12.0,38,0.00,,,0.04,149,Wunderground v.1.15,2013-03-31 23:54:00,
2013-03-31 19:00:00,64.6,39.1,29.96,NNW,337,4.0,12.0,39,0.00,,,0.04,76,Wunderground v.1.15,2013-04-01 00:00:00,
2013-03-31 19:06:00,64.1,40.5,29.96,NNW,337,4.0,4.0,42,0.00,,,0.04,76,Wunderground v.1.15,2013-04-01 00:06:00,
2013-03-31 19:12:00,63.5,40.6,29.97,NNW,337,3.0,12.0,43,0.00,,,0.04,58,Wunderground v.1.15,2013-04-01 00:12:00,
2013-03-31 19:18:00,63.1,39.0,29.96,NNW,337,3.0,12.0,41,0.00,,,0.04,51,Wunderground v.1.15,2013-04-01 00:18:00,
2013-03-31 19:24:00,63.0,38.9,29.96,NNW,337,2.0,12.0,41,0.00,,,0.04,26,Wunderground v.1.15,2013-04-01 00:24:00,
2013-03-31 19:30:00,62.7,39.3,29.97,NNW,337,3.0,12.0,42,0.00,,,0.04,19,Wunderground v.1.15,2013-04-01 00:30:00,
2013-03-31 19:36:00,62.2,40.6,29.97,NNW,337,4.0,12.0,45,0.00,,,0.04,16,Wunderground v.1.15,2013-04-01 00:36:00,
2013-03-31 19:42:00,61.0,40.6,29.97,NNW,337,4.0,12.0,47,0.00,,,0.04,11,Wunderground v.1.15,2013-04-01 00:42:00,
2013-03-31 19:48:00,60.6,38.6,29.97,NNW,337,4.0,12.0,44,0.00,,,0.04,7,Wunderground v.1.15,2013-04-01 00:48:00,
2013-03-31 19:54:00,60.5,38.5,29.97,NNW,337,3.0,12.0,44,0.00,,,0.04,0,Wunderground v.1.15,2013-04-01 00:54:00,
2013-03-31 20:00:00,59.7,39.4,29.98,NNW,337,2.0,12.0,47,0.00,,,0.04,0,Wunderground v.1.15,2013-04-01 01:00:00,
2013-03-31 20:08:00,59.6,38.2,29.98,NNW,337,3.0,12.0,45,0.00,,,0.04,0,Wunderground v.1.15,2013-04-01 01:08:00,
2013-03-31 20:14:00,59.2,39.0,29.98,NNW,337,4.0,12.0,47,0.00,,,0.04,0,Wunderground v.1.15,2013-04-01 01:14:00,
2013-03-31 20:24:00,59.0,38.2,29.98,NNW,337,4.0,12.0,46,0.00,,,0.04,0,Wunderground v.1.15,2013-04-01 01:24:00,
2013-03-31 20:30:00,58.9,38.1,29.98,NNW,337,4.0,12.0,46,0.00,,,0.04,0,Wunderground v.1.15,2013-04-01 01:30:00,
2013-03-31 20:36:00,58.6,39.0,29.99,NNW,337,4.0,12.0,48,0.00,,,0.04,0,Wunderground v.1.15,2013-04-01 01:36:00,
2013-03-31 20:42:00,58.2,38.6,29.99,NNW,337,4.0,12.0,48,0.00,,,0.04,0,Wunderground v.1.15,2013-04-01 01:42:00,
2013-03-31 20:48:00,57.8,39.3,29.99,NNW,337,4.0,12.0,50,0.00,,,0.04,0,Wunderground v.1.15,2013-04-01 01:48:00,
2013-03-31 20:54:00,57.7,38.7,29.99,NNW,337,4.0,12.0,49,0.00,,,0.04,0,Wunderground v.1.15,2013-04-01 01:54:00,
2013-03-31 21:00:00,57.5,38.5,29.99,NNW,337,3.0,12.0,49,0.00,,,0.04,0,Wunderground v.1.15,2013-04-01 02:00:00,
2013-03-31 21:08:00,56.6,38.2,30.00,NNW,337,1.0,12.0,50,0.00,,,0.04,0,Wunderground v.1.15,2013-04-01 02:08:00,
2013-03-31 21:14:00,55.9,37.5,30.00,NNW,337,1.0,12.0,50,0.00,,,0.04,0,Wunderground v.1.15,2013-04-01 02:14:00,
2013-03-31 21:20:00,55.7,38.8,30.00,NNW,337,1.0,12.0,53,0.00,,,0.04,0,Wunderground v.1.15,2013-04-01 02:20:00,
2013-03-31 21:26:00,55.1,37.8,30.00,NNW,337,1.0,1.0,52,0.00,,,0.04,0,Wunderground v.1.15,2013-04-01 02:26:00,
2013-03-31 21:32:00,54.6,39.7,30.00,NNW,337,0.0,12.0,57,0.00,,,0.04,0,Wunderground v.1.15,2013-04-01 02:32:00,
2013-03-31 21:38:00,53.6,38.3,30.00,NNW,337,0.0,12.0,56,0.00,,,0.04,0,Wunderground v.1.15,2013-04-01 02:38:00,
2013-03-31 21:48:00,53.1,38.7,30.00,NNW,337,0.0,12.0,58,0.00,,,0.04,0,Wunderground v.1.15,2013-04-01 02:48:00,
2013-03-31 21:54:00,52.1,39.5,30.00,NNW,337,0.0,12.0,62,0.00,,,0.04,0,Wunderground v.1.15,2013-04-01 02:54:00,
2013-03-31 22:00:00,51.4,39.2,29.99,NNW,337,1.0,12.0,63,0.00,,,0.04,0,Wunderground v.1.15,2013-04-01 03:00:00,
2013-03-31 22:06:00,49.9,40.1,29.99,NNW,337,3.0,12.0,69,0.00,,,0.04,0,Wunderground v.1.15,2013-04-01 03:06:00,
2013-03-31 22:12:00,49.3,40.3,29.99,NNW,337,4.0,12.0,71,0.00,,,0.04,0,Wunderground v.1.15,2013-04-01 03:12:00,
2013-03-31 22:18:00,49.0,40.4,29.98,NNW,337,4.0,12.0,72,0.00,,,0.04,0,Wunderground v.1.15,2013-04-01 03:18:00,
2013-03-31 22:24:00,49.0,40.0,29.98,NNW,338,5.0,12.0,71,0.00,,,0.04,0,Wunderground v.1.15,2013-04-01 03:24:00,
2013-03-31 22:30:00,49.4,39.3,29.98,SE,137,6.0,12.0,68,0.00,,,0.04,0,Wunderground v.1.15,2013-04-01 03:30:00,
2013-03-31 22:36:00,49.7,39.2,29.98,SSE,147,6.0,12.0,67,0.00,,,0.04,0,Wunderground v.1.15,2013-04-01 03:36:00,
2013-03-31 22:42:00,49.4,38.9,29.98,SSE,150,5.0,12.0,67,0.00,,,0.04,0,Wunderground v.1.15,2013-04-01 03:42:00,
2013-03-31 22:48:00,49.0,38.9,29.97,SSE,150,5.0,12.0,68,0.00,,,0.04,0,Wunderground v.1.15,2013-04-01 03:48:00,
2013-03-31 22:54:00,48.5,38.8,29.97,SSE,150,4.0,12.0,69,0.00,,,0.04,0,Wunderground v.1.15,2013-04-01 03:54:00,
2013-03-31 23:00:00,48.4,39.1,29.97,SSE,150,4.0,12.0,70,0.00,,,0.04,0,Wunderground v.1.15,2013-04-01 04:00:00,
2013-03-31 23:04:00,48.4,39.1,29.97,SSE,152,4.0,12.0,70,0.00,,,0.04,0,Wunderground v.1.15,2013-04-01 04:04:00,
2013-03-31 23:08:00,48.4,39.1,29.97,SSE,152,4.0,12.0,70,0.00,,,0.04,0,Wunderground v.1.15,2013-04-01 04:08:00,
2013-03-31 23:12:00,48.5,39.2,29.97,SSE,152,4.0,12.0,70,0.00,,,0.04,0,Wunderground v.1.15,2013-04-01 04:12:00,
2013-03-31 23:18:00,48.6,39.3,29.97,SSE,153,4.0,12.0,70,0.00,,,0.04,0,Wunderground v.1.15,2013-04-01 04:18:00,
2013-03-31 23:24:00,48.4,39.1,29.97,SSE,153,3.0,12.0,70,0.00,,,0.04,0,Wunderground v.1.15,2013-04-01 04:24:00,
2013-03-31 23:30:00,48.4,38.7,29.97,SSE,153,3.0,12.0,69,0.00,,,0.04,0,Wunderground v.1.15,2013-04-01 04:30:00,
2013-03-31 23:38:00,48.1,38.8,29.96,SSE,153,4.0,12.0,70,0.00,,,0.04,0,Wunderground v.1.15,2013-04-01 04:38:00,
2013-03-31 23:44:00,48.3,39.0,29.97,SSE,153,4.0,12.0,70,0.00,,,0.04,0,Wunderground v.1.15,2013-04-01 04:44:00,
2013-03-31 23:50:00,48.3,39.0,29.97,SSE,153,4.0,12.0,70,0.00,,,0.04,0,Wunderground v.1.15,2013-04-01 04:50:00,
2013-03-31 23:56:00,47.9,38.6,29.97,SSE,153,4.0,12.0,70,0.00,,,0.04,0,Wunderground v.1.15,2013-04-01 04:56:00,